sensor_id;sensor_type;location;lat;lon;timestamp;pressure;altitude;pressure_sealevel;temperature;humidity
55576;BME280;41437;45.478;9.116;2023-01-28T00:02:51;99786.34;;;1.46;99.90
55576;BME280;41437;45.478;9.116;2023-01-28T00:06:00;99780.72;;;1.48;98.19
55576;BME280;41437;45.478;9.116;2023-01-28T00:09:02;99789.28;;;1.51;96.12
55576;BME280;41437;45.478;9.116;2023-01-28T00:12:04;99778.25;;;1.60;98.51
55576;BME280;41437;45.478;9.116;2023-01-28T00:15:07;99786.41;;;1.60;97.21
55576;BME280;41437;45.478;9.116;2023-01-28T00:18:09;99780.25;;;1.31;98.11
55576;BME280;41437;45.478;9.116;2023-01-28T00:21:14;99769.28;;;1.05;98.69
55576;BME280;41437;45.478;9.116;2023-01-28T00:24:15;99776.56;;;1.04;96.61
55576;BME280;41437;45.478;9.116;2023-01-28T00:27:17;99772.34;;;0.95;99.62
55576;BME280;41437;45.478;9.116;2023-01-28T00:30:19;99772.69;;;0.85;100.00
55576;BME280;41437;45.478;9.116;2023-01-28T00:33:21;99771.88;;;0.91;100.00
55576;BME280;41437;45.478;9.116;2023-01-28T00:36:25;99778.44;;;1.04;100.00
55576;BME280;41437;45.478;9.116;2023-01-28T00:39:26;99781.44;;;1.15;100.00
55576;BME280;41437;45.478;9.116;2023-01-28T00:42:28;99789.00;;;1.27;100.00
55576;BME280;41437;45.478;9.116;2023-01-28T00:45:29;99782.16;;;1.37;100.00
55576;BME280;41437;45.478;9.116;2023-01-28T00:48:31;99789.66;;;1.35;99.79
55576;BME280;41437;45.478;9.116;2023-01-28T00:51:34;99787.31;;;1.25;98.57
55576;BME280;41437;45.478;9.116;2023-01-28T00:54:36;99784.13;;;1.15;98.43
55576;BME280;41437;45.478;9.116;2023-01-28T00:57:38;99788.50;;;1.10;99.86
55576;BME280;41437;45.478;9.116;2023-01-28T01:00:39;99789.88;;;0.92;100.00
55576;BME280;41437;45.478;9.116;2023-01-28T01:03:41;99791.66;;;0.79;100.00
55576;BME280;41437;45.478;9.116;2023-01-28T01:06:44;99787.66;;;0.74;100.00
55576;BME280;41437;45.478;9.116;2023-01-28T01:09:46;99791.91;;;0.90;100.00
55576;BME280;41437;45.478;9.116;2023-01-28T01:12:48;99795.31;;;0.99;100.00
55576;BME280;41437;45.478;9.116;2023-01-28T01:15:50;99799.75;;;1.07;100.00
55576;BME280;41437;45.478;9.116;2023-01-28T01:19:01;99804.13;;;1.08;100.00
55576;BME280;41437;45.478;9.116;2023-01-28T01:22:04;99802.50;;;1.13;100.00
55576;BME280;41437;45.478;9.116;2023-01-28T01:25:06;99811.66;;;1.12;100.00
55576;BME280;41437;45.478;9.116;2023-01-28T01:28:09;99808.28;;;1.04;98.55
55576;BME280;41437;45.478;9.116;2023-01-28T01:31:12;99805.38;;;1.05;100.00
55576;BME280;41437;45.478;9.116;2023-01-28T01:34:14;99814.16;;;1.07;100.00
55576;BME280;41437;45.478;9.116;2023-01-28T01:37:17;99813.78;;;1.17;100.00
55576;BME280;41437;45.478;9.116;2023-01-28T01:40:19;99815.69;;;1.23;100.00
55576;BME280;41437;45.478;9.116;2023-01-28T01:43:21;99810.28;;;1.23;99.81
55576;BME280;41437;45.478;9.116;2023-01-28T01:46:30;99815.50;;;1.24;100.00
55576;BME280;41437;45.478;9.116;2023-01-28T01:49:33;99814.03;;;1.22;99.28
55576;BME280;41437;45.478;9.116;2023-01-28T01:52:36;99818.22;;;1.24;98.66
55576;BME280;41437;45.478;9.116;2023-01-28T01:55:40;99825.38;;;1.39;100.00
55576;BME280;41437;45.478;9.116;2023-01-28T01:58:46;99828.91;;;1.39;96.36
55576;BME280;41437;45.478;9.116;2023-01-28T02:01:51;99813.81;;;1.23;96.92
55576;BME280;41437;45.478;9.116;2023-01-28T02:04:54;99821.75;;;1.25;97.47
55576;BME280;41437;45.478;9.116;2023-01-28T02:07:58;99819.25;;;1.23;100.00
55576;BME280;41437;45.478;9.116;2023-01-28T02:11:20;99827.63;;;1.29;99.58
55576;BME280;41437;45.478;9.116;2023-01-28T02:14:26;99826.03;;;1.41;98.94
55576;BME280;41437;45.478;9.116;2023-01-28T02:17:29;99826.84;;;1.41;98.13
55576;BME280;41437;45.478;9.116;2023-01-28T02:20:38;99824.75;;;1.43;98.03
55576;BME280;41437;45.478;9.116;2023-01-28T02:23:53;99819.31;;;1.37;97.97
55576;BME280;41437;45.478;9.116;2023-01-28T02:27:15;99813.28;;;1.41;99.14
55576;BME280;41437;45.478;9.116;2023-01-28T02:30:24;99814.56;;;1.45;97.77
55576;BME280;41437;45.478;9.116;2023-01-28T02:33:32;99813.91;;;1.43;97.76
55576;BME280;41437;45.478;9.116;2023-01-28T02:36:41;99803.59;;;1.25;98.89
55576;BME280;41437;45.478;9.116;2023-01-28T02:39:47;99807.13;;;1.26;99.89
55576;BME280;41437;45.478;9.116;2023-01-28T02:42:50;99810.91;;;1.25;100.00
55576;BME280;41437;45.478;9.116;2023-01-28T02:45:53;99818.66;;;1.28;99.99
55576;BME280;41437;45.478;9.116;2023-01-28T02:49:15;99824.69;;;1.30;100.00
55576;BME280;41437;45.478;9.116;2023-01-28T02:52:36;99826.41;;;1.31;100.00
55576;BME280;41437;45.478;9.116;2023-01-28T02:56:06;99830.78;;;1.32;99.48
55576;BME280;41437;45.478;9.116;2023-01-28T02:59:16;99829.72;;;1.27;99.72
55576;BME280;41437;45.478;9.116;2023-01-28T03:02:36;99829.72;;;1.33;100.00
55576;BME280;41437;45.478;9.116;2023-01-28T03:05:44;99829.81;;;1.12;99.28
55576;BME280;41437;45.478;9.116;2023-01-28T03:09:05;99827.09;;;0.77;100.00
55576;BME280;41437;45.478;9.116;2023-01-28T03:12:27;99820.16;;;0.68;100.00
55576;BME280;41437;45.478;9.116;2023-01-28T03:15:49;99823.31;;;0.71;100.00
55576;BME280;41437;45.478;9.116;2023-01-28T03:19:10;99831.00;;;0.68;100.00
55576;BME280;41437;45.478;9.116;2023-01-28T03:22:33;99832.88;;;0.67;100.00
55576;BME280;41437;45.478;9.116;2023-01-28T03:25:58;99832.25;;;0.65;100.00
55576;BME280;41437;45.478;9.116;2023-01-28T03:29:19;99833.56;;;0.76;100.00
55576;BME280;41437;45.478;9.116;2023-01-28T03:32:40;99832.06;;;0.73;100.00
55576;BME280;41437;45.478;9.116;2023-01-28T03:36:02;99837.31;;;0.75;100.00
55576;BME280;41437;45.478;9.116;2023-01-28T03:39:24;99838.19;;;0.82;100.00
55576;BME280;41437;45.478;9.116;2023-01-28T03:42:26;99840.50;;;0.85;100.00
55576;BME280;41437;45.478;9.116;2023-01-28T03:45:27;99842.03;;;0.94;100.00
55576;BME280;41437;45.478;9.116;2023-01-28T03:48:29;99843.47;;;0.90;100.00
55576;BME280;41437;45.478;9.116;2023-01-28T03:51:32;99846.75;;;0.79;98.93
55576;BME280;41437;45.478;9.116;2023-01-28T03:54:34;99851.78;;;0.61;100.00
55576;BME280;41437;45.478;9.116;2023-01-28T03:57:35;99847.66;;;0.65;100.00
55576;BME280;41437;45.478;9.116;2023-01-28T04:00:38;99847.25;;;0.68;100.00
55576;BME280;41437;45.478;9.116;2023-01-28T04:03:42;99850.19;;;0.66;100.00
55576;BME280;41437;45.478;9.116;2023-01-28T04:06:45;99843.97;;;0.72;100.00
55576;BME280;41437;45.478;9.116;2023-01-28T04:09:47;99856.31;;;0.75;100.00
55576;BME280;41437;45.478;9.116;2023-01-28T04:12:48;99858.22;;;0.81;100.00
55576;BME280;41437;45.478;9.116;2023-01-28T04:15:50;99844.84;;;0.80;100.00
55576;BME280;41437;45.478;9.116;2023-01-28T04:18:52;99855.25;;;0.76;100.00
55576;BME280;41437;45.478;9.116;2023-01-28T04:21:55;99867.53;;;0.72;100.00
55576;BME280;41437;45.478;9.116;2023-01-28T04:24:57;99854.81;;;0.72;100.00
55576;BME280;41437;45.478;9.116;2023-01-28T04:27:59;99856.94;;;0.77;100.00
55576;BME280;41437;45.478;9.116;2023-01-28T04:31:00;99851.13;;;0.80;100.00
55576;BME280;41437;45.478;9.116;2023-01-28T04:34:02;99863.25;;;0.84;100.00
55576;BME280;41437;45.478;9.116;2023-01-28T04:37:05;99867.00;;;0.83;100.00
55576;BME280;41437;45.478;9.116;2023-01-28T04:40:08;99868.44;;;0.79;100.00
55576;BME280;41437;45.478;9.116;2023-01-28T04:43:09;99873.72;;;0.87;100.00
55576;BME280;41437;45.478;9.116;2023-01-28T04:46:11;99876.59;;;0.86;100.00
55576;BME280;41437;45.478;9.116;2023-01-28T04:49:12;99888.03;;;0.81;100.00
55576;BME280;41437;45.478;9.116;2023-01-28T04:52:15;99888.72;;;0.83;100.00
55576;BME280;41437;45.478;9.116;2023-01-28T04:55:17;99894.13;;;0.83;100.00
55576;BME280;41437;45.478;9.116;2023-01-28T04:58:18;99893.09;;;0.84;100.00
55576;BME280;41437;45.478;9.116;2023-01-28T05:01:20;99886.88;;;0.90;100.00
55576;BME280;41437;45.478;9.116;2023-01-28T05:04:22;99897.56;;;0.98;100.00
55576;BME280;41437;45.478;9.116;2023-01-28T05:07:25;99903.25;;;1.04;100.00
55576;BME280;41437;45.478;9.116;2023-01-28T05:10:27;99913.72;;;1.07;100.00
55576;BME280;41437;45.478;9.116;2023-01-28T05:13:28;99907.66;;;1.05;100.00
55576;BME280;41437;45.478;9.116;2023-01-28T05:16:30;99917.69;;;1.11;100.00
55576;BME280;41437;45.478;9.116;2023-01-28T05:19:33;99925.63;;;1.12;100.00
55576;BME280;41437;45.478;9.116;2023-01-28T05:22:36;99922.69;;;1.07;100.00
55576;BME280;41437;45.478;9.116;2023-01-28T05:25:37;99928.41;;;1.19;100.00
55576;BME280;41437;45.478;9.116;2023-01-28T05:28:39;99920.50;;;1.24;100.00
55576;BME280;41437;45.478;9.116;2023-01-28T05:31:41;99924.13;;;1.31;100.00
55576;BME280;41437;45.478;9.116;2023-01-28T05:34:42;99931.25;;;1.39;100.00
55576;BME280;41437;45.478;9.116;2023-01-28T05:37:48;99937.94;;;1.36;100.00
55576;BME280;41437;45.478;9.116;2023-01-28T05:40:49;99935.44;;;1.41;100.00
55576;BME280;41437;45.478;9.116;2023-01-28T05:43:51;99945.94;;;1.44;100.00
55576;BME280;41437;45.478;9.116;2023-01-28T05:46:52;99948.47;;;1.53;100.00
55576;BME280;41437;45.478;9.116;2023-01-28T05:49:54;99950.53;;;1.50;99.32
55576;BME280;41437;45.478;9.116;2023-01-28T05:52:56;99953.63;;;1.41;99.41
55576;BME280;41437;45.478;9.116;2023-01-28T05:55:58;99969.59;;;1.29;99.97
55576;BME280;41437;45.478;9.116;2023-01-28T05:59:00;99957.22;;;1.20;100.00
55576;BME280;41437;45.478;9.116;2023-01-28T06:02:01;99965.34;;;1.13;98.98
55576;BME280;41437;45.478;9.116;2023-01-28T06:05:03;99975.88;;;0.80;100.00
55576;BME280;41437;45.478;9.116;2023-01-28T06:08:07;99972.91;;;0.75;100.00
55576;BME280;41437;45.478;9.116;2023-01-28T06:11:09;99983.09;;;0.73;100.00
55576;BME280;41437;45.478;9.116;2023-01-28T06:14:10;99980.72;;;0.63;100.00
55576;BME280;41437;45.478;9.116;2023-01-28T06:17:12;99982.34;;;0.58;100.00
55576;BME280;41437;45.478;9.116;2023-01-28T06:20:14;99982.91;;;0.53;100.00
55576;BME280;41437;45.478;9.116;2023-01-28T06:23:18;99984.13;;;0.50;100.00
55576;BME280;41437;45.478;9.116;2023-01-28T06:26:19;99987.09;;;0.56;100.00
55576;BME280;41437;45.478;9.116;2023-01-28T06:29:21;99989.78;;;0.34;100.00
55576;BME280;41437;45.478;9.116;2023-01-28T06:32:22;99992.75;;;0.03;100.00
55576;BME280;41437;45.478;9.116;2023-01-28T06:35:24;99989.03;;;-0.26;100.00
55576;BME280;41437;45.478;9.116;2023-01-28T06:38:27;100000.25;;;-0.29;100.00
55576;BME280;41437;45.478;9.116;2023-01-28T06:41:29;100007.03;;;-0.18;100.00
55576;BME280;41437;45.478;9.116;2023-01-28T06:44:30;100009.97;;;-0.34;100.00
55576;BME280;41437;45.478;9.116;2023-01-28T06:47:32;100008.91;;;-0.48;100.00
55576;BME280;41437;45.478;9.116;2023-01-28T06:50:33;100011.59;;;-0.63;100.00
55576;BME280;41437;45.478;9.116;2023-01-28T06:53:36;100010.75;;;-1.01;100.00
55576;BME280;41437;45.478;9.116;2023-01-28T06:56:38;99998.94;;;-1.23;100.00
55576;BME280;41437;45.478;9.116;2023-01-28T06:59:39;100016.03;;;-0.85;100.00
55576;BME280;41437;45.478;9.116;2023-01-28T07:02:41;100020.38;;;-0.61;100.00
55576;BME280;41437;45.478;9.116;2023-01-28T07:05:42;100016.22;;;-0.34;100.00
55576;BME280;41437;45.478;9.116;2023-01-28T07:08:45;100023.69;;;-0.21;100.00
55576;BME280;41437;45.478;9.116;2023-01-28T07:11:47;100026.75;;;-0.09;100.00
55576;BME280;41437;45.478;9.116;2023-01-28T07:14:49;100038.72;;;-0.04;100.00
55576;BME280;41437;45.478;9.116;2023-01-28T07:17:50;100030.66;;;0.03;100.00
55576;BME280;41437;45.478;9.116;2023-01-28T07:20:52;100039.81;;;0.17;100.00
55576;BME280;41437;45.478;9.116;2023-01-28T07:23:55;100029.63;;;0.19;100.00
55576;BME280;41437;45.478;9.116;2023-01-28T07:26:57;100036.31;;;0.38;100.00
55576;BME280;41437;45.478;9.116;2023-01-28T07:29:58;100042.56;;;0.38;100.00
55576;BME280;41437;45.478;9.116;2023-01-28T07:33:00;100040.03;;;0.52;100.00
55576;BME280;41437;45.478;9.116;2023-01-28T07:36:02;100043.75;;;0.65;100.00
55576;BME280;41437;45.478;9.116;2023-01-28T07:39:05;100037.88;;;0.62;100.00
55576;BME280;41437;45.478;9.116;2023-01-28T07:42:07;100045.47;;;0.73;100.00
55576;BME280;41437;45.478;9.116;2023-01-28T07:45:10;100044.31;;;0.82;100.00
55576;BME280;41437;45.478;9.116;2023-01-28T07:48:12;100039.47;;;0.78;100.00
55576;BME280;41437;45.478;9.116;2023-01-28T07:51:14;100042.19;;;0.78;100.00
55576;BME280;41437;45.478;9.116;2023-01-28T07:54:17;100042.19;;;0.78;100.00
55576;BME280;41437;45.478;9.116;2023-01-28T07:57:18;100058.66;;;0.76;100.00
55576;BME280;41437;45.478;9.116;2023-01-28T08:00:22;100069.25;;;0.71;100.00
55576;BME280;41437;45.478;9.116;2023-01-28T08:03:25;100073.16;;;0.83;100.00
55576;BME280;41437;45.478;9.116;2023-01-28T08:06:27;100076.44;;;1.00;100.00
55576;BME280;41437;45.478;9.116;2023-01-28T08:09:30;100084.31;;;1.16;100.00
55576;BME280;41437;45.478;9.116;2023-01-28T08:12:33;100094.34;;;1.16;100.00
55576;BME280;41437;45.478;9.116;2023-01-28T08:15:35;100091.38;;;1.11;100.00
55576;BME280;41437;45.478;9.116;2023-01-28T08:18:38;100096.03;;;1.17;100.00
55576;BME280;41437;45.478;9.116;2023-01-28T08:21:39;100097.69;;;1.39;100.00
55576;BME280;41437;45.478;9.116;2023-01-28T08:24:42;100098.13;;;1.64;97.09
55576;BME280;41437;45.478;9.116;2023-01-28T08:27:44;100091.84;;;1.64;95.98
55576;BME280;41437;45.478;9.116;2023-01-28T08:30:45;100102.78;;;1.70;97.21
55576;BME280;41437;45.478;9.116;2023-01-28T08:33:47;100101.63;;;1.86;95.33
55576;BME280;41437;45.478;9.116;2023-01-28T08:36:49;100098.28;;;1.84;95.63
55576;BME280;41437;45.478;9.116;2023-01-28T08:39:52;100106.28;;;1.92;95.03
55576;BME280;41437;45.478;9.116;2023-01-28T08:42:53;100114.91;;;2.03;96.33
55576;BME280;41437;45.478;9.116;2023-01-28T08:45:55;100114.19;;;2.22;100.00
55576;BME280;41437;45.478;9.116;2023-01-28T08:48:57;100108.06;;;2.48;100.00
55576;BME280;41437;45.478;9.116;2023-01-28T08:52:00;100113.59;;;2.61;100.00
55576;BME280;41437;45.478;9.116;2023-01-28T08:55:04;100120.94;;;2.67;96.74
55576;BME280;41437;45.478;9.116;2023-01-28T08:58:10;100115.53;;;2.81;95.23
55576;BME280;41437;45.478;9.116;2023-01-28T09:01:12;100120.63;;;2.97;93.61
55576;BME280;41437;45.478;9.116;2023-01-28T09:04:13;100118.56;;;3.06;92.82
55576;BME280;41437;45.478;9.116;2023-01-28T09:07:15;100126.13;;;3.17;91.83
55576;BME280;41437;45.478;9.116;2023-01-28T09:10:18;100130.75;;;3.30;93.64
55576;BME280;41437;45.478;9.116;2023-01-28T09:13:21;100134.13;;;3.38;92.30
55576;BME280;41437;45.478;9.116;2023-01-28T09:16:23;100137.31;;;3.48;92.47
55576;BME280;41437;45.478;9.116;2023-01-28T09:19:24;100142.13;;;3.60;91.87
55576;BME280;41437;45.478;9.116;2023-01-28T09:22:26;100146.75;;;3.72;91.54
55576;BME280;41437;45.478;9.116;2023-01-28T09:25:29;100158.09;;;3.89;90.50
55576;BME280;41437;45.478;9.116;2023-01-28T09:28:31;100161.84;;;4.01;91.55
55576;BME280;41437;45.478;9.116;2023-01-28T09:31:33;100154.31;;;4.10;82.64
55576;BME280;41437;45.478;9.116;2023-01-28T09:34:35;100157.22;;;4.15;83.03
55576;BME280;41437;45.478;9.116;2023-01-28T09:37:37;100160.19;;;4.14;80.17
55576;BME280;41437;45.478;9.116;2023-01-28T09:40:41;100171.06;;;4.20;79.27
55576;BME280;41437;45.478;9.116;2023-01-28T09:43:56;100168.53;;;4.25;78.47
55576;BME280;41437;45.478;9.116;2023-01-28T09:47:02;100167.91;;;4.30;74.79
55576;BME280;41437;45.478;9.116;2023-01-28T09:50:07;100167.06;;;4.36;75.45
55576;BME280;41437;45.478;9.116;2023-01-28T09:53:12;100173.56;;;4.48;74.80
55576;BME280;41437;45.478;9.116;2023-01-28T09:56:24;100177.28;;;4.61;74.61
55576;BME280;41437;45.478;9.116;2023-01-28T09:59:28;100180.63;;;4.76;69.33
55576;BME280;41437;45.478;9.116;2023-01-28T10:02:39;100164.25;;;4.69;68.70
55576;BME280;41437;45.478;9.116;2023-01-28T10:05:52;100170.94;;;4.73;69.46
55576;BME280;41437;45.478;9.116;2023-01-28T10:09:07;100168.88;;;4.75;67.59
55576;BME280;41437;45.478;9.116;2023-01-28T10:12:33;100168.81;;;4.89;66.41
55576;BME280;41437;45.478;9.116;2023-01-28T10:16:04;100168.53;;;5.03;68.56
55576;BME280;41437;45.478;9.116;2023-01-28T10:19:15;100178.75;;;5.21;65.94
55576;BME280;41437;45.478;9.116;2023-01-28T10:22:22;100167.13;;;5.33;68.93
55576;BME280;41437;45.478;9.116;2023-01-28T10:25:27;100171.81;;;5.57;63.40
55576;BME280;41437;45.478;9.116;2023-01-28T10:28:34;100167.88;;;5.53;61.39
55576;BME280;41437;45.478;9.116;2023-01-28T10:31:40;100170.63;;;5.46;63.07
55576;BME280;41437;45.478;9.116;2023-01-28T10:34:50;100157.13;;;5.51;60.95
55576;BME280;41437;45.478;9.116;2023-01-28T10:37:58;100173.09;;;5.54;58.85
55576;BME280;41437;45.478;9.116;2023-01-28T10:41:03;100160.50;;;5.53;59.35
55576;BME280;41437;45.478;9.116;2023-01-28T10:44:11;100166.75;;;5.61;60.32
55576;BME280;41437;45.478;9.116;2023-01-28T10:47:21;100149.47;;;5.67;61.72
55576;BME280;41437;45.478;9.116;2023-01-28T10:50:27;100152.44;;;5.90;59.43
55576;BME280;41437;45.478;9.116;2023-01-28T10:53:34;100148.63;;;5.98;57.82
55576;BME280;41437;45.478;9.116;2023-01-28T10:56:36;100149.38;;;5.80;58.23
55576;BME280;41437;45.478;9.116;2023-01-28T10:59:40;100140.50;;;5.85;58.53
55576;BME280;41437;45.478;9.116;2023-01-28T11:02:42;100134.06;;;6.04;60.93
55576;BME280;41437;45.478;9.116;2023-01-28T11:05:50;100135.50;;;6.07;58.46
55576;BME280;41437;45.478;9.116;2023-01-28T11:08:52;100131.19;;;6.17;56.82
55576;BME280;41437;45.478;9.116;2023-01-28T11:11:53;100129.66;;;6.03;55.47
55576;BME280;41437;45.478;9.116;2023-01-28T11:14:58;100133.50;;;5.95;54.23
55576;BME280;41437;45.478;9.116;2023-01-28T11:18:01;100128.25;;;5.87;56.10
55576;BME280;41437;45.478;9.116;2023-01-28T11:21:05;100120.59;;;6.02;57.79
55576;BME280;41437;45.478;9.116;2023-01-28T11:24:14;100119.53;;;6.03;56.36
55576;BME280;41437;45.478;9.116;2023-01-28T11:27:17;100106.06;;;5.77;58.47
55576;BME280;41437;45.478;9.116;2023-01-28T11:30:25;100105.72;;;5.98;58.66
55576;BME280;41437;45.478;9.116;2023-01-28T11:33:32;100102.72;;;6.00;58.41
55576;BME280;41437;45.478;9.116;2023-01-28T11:36:37;100104.06;;;6.16;57.26
55576;BME280;41437;45.478;9.116;2023-01-28T11:39:38;100105.28;;;6.20;57.92
55576;BME280;41437;45.478;9.116;2023-01-28T11:42:40;100091.88;;;5.87;57.75
55576;BME280;41437;45.478;9.116;2023-01-28T11:45:48;100092.81;;;6.06;57.03
55576;BME280;41437;45.478;9.116;2023-01-28T11:48:57;100084.38;;;6.07;59.87
55576;BME280;41437;45.478;9.116;2023-01-28T11:52:08;100072.97;;;5.85;58.68
55576;BME280;41437;45.478;9.116;2023-01-28T11:55:24;100076.56;;;6.29;56.55
55576;BME280;41437;45.478;9.116;2023-01-28T11:58:37;100076.50;;;6.36;56.71
55576;BME280;41437;45.478;9.116;2023-01-28T12:01:46;100068.66;;;6.39;54.95
55576;BME280;41437;45.478;9.116;2023-01-28T12:05:10;100067.06;;;6.50;56.88
55576;BME280;41437;45.478;9.116;2023-01-28T12:08:21;100064.72;;;6.53;53.23
55576;BME280;41437;45.478;9.116;2023-01-28T12:11:29;100061.81;;;6.48;55.15
55576;BME280;41437;45.478;9.116;2023-01-28T12:15:18;100051.84;;;6.72;56.04
55576;BME280;41437;45.478;9.116;2023-01-28T12:22:11;100040.69;;;7.16;69.13
55576;BME280;41437;45.478;9.116;2023-01-28T12:25:22;100038.53;;;7.06;52.78
55576;BME280;41437;45.478;9.116;2023-01-28T12:28:36;100035.75;;;7.48;59.25
55576;BME280;41437;45.478;9.116;2023-01-28T12:31:56;100027.69;;;7.76;59.10
55576;BME280;41437;45.478;9.116;2023-01-28T12:35:38;100034.13;;;7.82;48.87
55576;BME280;41437;45.478;9.116;2023-01-28T12:38:49;100029.72;;;7.58;48.88
55576;BME280;41437;45.478;9.116;2023-01-28T12:42:01;100030.53;;;7.70;64.30
55576;BME280;41437;45.478;9.116;2023-01-28T12:45:14;100031.72;;;7.74;54.12
55576;BME280;41437;45.478;9.116;2023-01-28T12:48:19;100020.63;;;7.92;72.14
55576;BME280;41437;45.478;9.116;2023-01-28T12:51:26;100029.69;;;8.04;53.65
55576;BME280;41437;45.478;9.116;2023-01-28T12:54:35;100018.00;;;8.21;53.38
55576;BME280;41437;45.478;9.116;2023-01-28T12:57:40;100014.38;;;8.55;62.81
55576;BME280;41437;45.478;9.116;2023-01-28T13:00:46;100014.41;;;8.32;57.97
55576;BME280;41437;45.478;9.116;2023-01-28T13:03:53;100011.72;;;8.61;65.91
55576;BME280;41437;45.478;9.116;2023-01-28T13:06:59;100010.25;;;8.70;55.58
55576;BME280;41437;45.478;9.116;2023-01-28T13:10:05;100015.06;;;8.63;52.83
55576;BME280;41437;45.478;9.116;2023-01-28T13:13:16;100002.28;;;8.68;65.54
55576;BME280;41437;45.478;9.116;2023-01-28T13:16:18;100005.81;;;8.80;52.01
55576;BME280;41437;45.478;9.116;2023-01-28T13:19:22;99997.34;;;8.99;64.66
55576;BME280;41437;45.478;9.116;2023-01-28T13:22:28;99996.22;;;8.83;58.79
55576;BME280;41437;45.478;9.116;2023-01-28T13:25:33;100010.84;;;9.00;65.26
55576;BME280;41437;45.478;9.116;2023-01-28T13:28:34;100010.06;;;9.17;55.65
55576;BME280;41437;45.478;9.116;2023-01-28T13:31:38;100005.59;;;9.27;65.77
55576;BME280;41437;45.478;9.116;2023-01-28T13:34:41;100013.50;;;8.95;51.89
55576;BME280;41437;45.478;9.116;2023-01-28T13:37:45;100026.53;;;8.60;44.85
55576;BME280;41437;45.478;9.116;2023-01-28T13:40:53;100015.69;;;8.53;57.93
55576;BME280;41437;45.478;9.116;2023-01-28T13:43:55;100008.75;;;8.62;51.06
55576;BME280;41437;45.478;9.116;2023-01-28T13:47:12;100023.38;;;8.79;56.40
55576;BME280;41437;45.478;9.116;2023-01-28T13:50:18;100023.00;;;9.04;54.52
55576;BME280;41437;45.478;9.116;2023-01-28T13:53:38;100036.94;;;8.98;48.84
55576;BME280;41437;45.478;9.116;2023-01-28T13:57:03;100029.50;;;8.98;55.79
55576;BME280;41437;45.478;9.116;2023-01-28T14:00:14;100032.13;;;9.22;56.59
55576;BME280;41437;45.478;9.116;2023-01-28T14:03:42;100028.38;;;9.11;59.80
55576;BME280;41437;45.478;9.116;2023-01-28T14:07:03;100037.41;;;8.95;56.38
55576;BME280;41437;45.478;9.116;2023-01-28T14:10:26;100029.69;;;9.09;63.87
55576;BME280;41437;45.478;9.116;2023-01-28T14:13:48;100042.34;;;9.10;54.43
55576;BME280;41437;45.478;9.116;2023-01-28T14:16:54;100029.78;;;9.14;53.83
55576;BME280;41437;45.478;9.116;2023-01-28T14:19:59;100038.72;;;9.21;59.08
55576;BME280;41437;45.478;9.116;2023-01-28T14:23:03;100046.63;;;9.17;48.91
55576;BME280;41437;45.478;9.116;2023-01-28T14:26:15;100038.56;;;9.27;60.50
55576;BME280;41437;45.478;9.116;2023-01-28T14:29:32;100039.50;;;9.33;57.36
55576;BME280;41437;45.478;9.116;2023-01-28T14:32:44;100029.91;;;9.19;59.34
55576;BME280;41437;45.478;9.116;2023-01-28T14:35:47;100045.34;;;9.37;62.23
55576;BME280;41437;45.478;9.116;2023-01-28T14:38:49;100046.34;;;9.47;62.24
55576;BME280;41437;45.478;9.116;2023-01-28T14:41:53;100042.84;;;9.52;61.48
55576;BME280;41437;45.478;9.116;2023-01-28T14:45:06;100048.22;;;9.30;54.93
55576;BME280;41437;45.478;9.116;2023-01-28T14:48:21;100049.19;;;9.07;49.54
55576;BME280;41437;45.478;9.116;2023-01-28T14:51:37;100054.94;;;9.05;54.00
55576;BME280;41437;45.478;9.116;2023-01-28T14:54:48;100051.69;;;8.80;55.99
55576;BME280;41437;45.478;9.116;2023-01-28T14:57:58;100056.72;;;9.00;52.75
55576;BME280;41437;45.478;9.116;2023-01-28T15:01:01;100044.16;;;9.32;65.65
55576;BME280;41437;45.478;9.116;2023-01-28T15:04:03;100053.25;;;9.33;60.19
55576;BME280;41437;45.478;9.116;2023-01-28T15:07:16;100050.84;;;9.37;58.15
55576;BME280;41437;45.478;9.116;2023-01-28T15:10:20;100057.53;;;9.12;60.89
55576;BME280;41437;45.478;9.116;2023-01-28T15:13:26;100051.41;;;8.93;62.53
55576;BME280;41437;45.478;9.116;2023-01-28T15:16:29;100045.69;;;9.12;63.57
55576;BME280;41437;45.478;9.116;2023-01-28T15:19:32;100054.53;;;9.14;58.19
55576;BME280;41437;45.478;9.116;2023-01-28T15:22:35;100046.56;;;9.00;61.43
55576;BME280;41437;45.478;9.116;2023-01-28T15:25:37;100051.53;;;8.87;64.22
55576;BME280;41437;45.478;9.116;2023-01-28T15:28:42;100055.50;;;9.07;64.96
55576;BME280;41437;45.478;9.116;2023-01-28T15:31:47;100054.34;;;9.03;62.44
55576;BME280;41437;45.478;9.116;2023-01-28T15:34:50;100050.31;;;8.94;65.80
55576;BME280;41437;45.478;9.116;2023-01-28T15:37:52;100048.97;;;8.68;64.37
55576;BME280;41437;45.478;9.116;2023-01-28T15:40:55;100059.03;;;8.63;63.72
55576;BME280;41437;45.478;9.116;2023-01-28T15:44:00;100060.06;;;8.62;64.39
55576;BME280;41437;45.478;9.116;2023-01-28T15:47:04;100062.81;;;8.62;65.54
55576;BME280;41437;45.478;9.116;2023-01-28T15:50:17;100072.75;;;8.63;58.60
55576;BME280;41437;45.478;9.116;2023-01-28T15:53:21;100074.31;;;8.59;57.46
55576;BME280;41437;45.478;9.116;2023-01-28T15:56:25;100073.50;;;8.58;62.89
55576;BME280;41437;45.478;9.116;2023-01-28T15:59:28;100080.06;;;8.45;64.70
55576;BME280;41437;45.478;9.116;2023-01-28T16:02:32;100080.66;;;8.47;63.62
55576;BME280;41437;45.478;9.116;2023-01-28T16:05:36;100083.75;;;8.39;65.36
55576;BME280;41437;45.478;9.116;2023-01-28T16:08:43;100088.28;;;8.34;63.97
55576;BME280;41437;45.478;9.116;2023-01-28T16:11:45;100095.47;;;8.23;59.66
55576;BME280;41437;45.478;9.116;2023-01-28T16:14:50;100096.28;;;8.00;63.56
55576;BME280;41437;45.478;9.116;2023-01-28T16:17:54;100103.84;;;7.51;55.58
55576;BME280;41437;45.478;9.116;2023-01-28T16:20:56;100103.72;;;7.16;57.55
55576;BME280;41437;45.478;9.116;2023-01-28T16:24:00;100105.69;;;6.97;60.53
55576;BME280;41437;45.478;9.116;2023-01-28T16:27:03;100110.19;;;6.73;60.27
55576;BME280;41437;45.478;9.116;2023-01-28T16:30:09;100107.69;;;6.53;60.94